Terminal Aerodrome Forecast
Issued by NWS

Home | Current Version | Previous Version | Text Only | Print | Product List | Glossary Off
Versions: 1 2 3 4 5 6 7 8 9 10 11 12 13 14 15 16

000
FTUS43 KGRB 181100
TAFATW
TAF
KATW 181135Z 1812/1912 34014KT P6SM SCT025 BKN050
      TEMPO 1812/1814 -RA BKN025
     FM181400 35013G20KT P6SM SCT035 BKN060
     FM181800 35012G19KT P6SM SCT050
     FM182200 36005KT P6SM SKC=

USA.gov is the U.S. government's official web portal to all federal, state and local government web resources and services.